Pringle, South Dakota
Current Conditions -  °F | °C
As of 2:53 AM on Thursday 29 Jan 2015 (Local Time) from KCUT Reporting Station
Clear Clear  
Wind Chill: 21°   Ceiling: Unl
Heat Index: 29°   Visibility: 10mi
Dew Point:   Wind: 8mph
Humidity: 29%   Direction: 350°N
Pressure: 30.3"   Gusts: NA
Location:  43.61°N, 103.59°W
Report Text: KCUT 290953Z AUTO 35007KT 10SM CLR M02/M18 A3030 RMK AO2 SLP271 T10171178
Loading
Personal Weather Stations






























Interactive Weather Map New forecast layout! Learn more

10-Day Weather Forecast

Advertisements
Track Severe Weather on mobile